ePrivacy and GPDR Cookie Consent by Cookie Consent
EmailTwitter


Observations de surface / Québec / CYHU (71371)

Régions: Québec | Canada | États-Unis | Europe | France | UK | Ailleurs
Station
Affichage
Infos & localisation pour CYHU (71371) | Aide pour décoder les METARs

Observations prises le 2023-01-28 à 10H13 UTC à MONTREAL/ST HUBE, QB (CYHU)

Etat du ciel: couvert.

Obstacle(s) à la visibilité: faible neige.

Température: -1.0 Celsius

Point de rosée: -4.0 Celsius

Humidité relative: 80%

Facteur vent: -6.

Facteur vent (rafales): -8.

Vents: Sud à 19 km/h ou 10 noeuds.

Rafale du vent: 35 km/h ou 19 noeuds.

Pression au niveau moyen de la mer: 101.20 kilopascals.

Calage altimétrique: 101.18 kilopascals ou 29.88 pouces de mercure.

Visibilité horizontale: 6.00 milles terrestres ou 9.60 kilomètres.

Hauteur du plafond: 640 mètres ( 2100 pieds ).

Observation METAR:

CYHU 281013Z AUTO 19010G19KT 6SM -SN BKN021 BKN036 OVC081 M01/M04 A2988 RMK

SLP120=